sensor_id;sensor_type;location;lat;lon;timestamp;pressure;altitude;pressure_sealevel;temperature;humidity
33422;BME280;19763;55.798;37.782;2022-09-20T00:01:11;98279.00;;;11.83;83.25
33422;BME280;19763;55.798;37.782;2022-09-20T00:03:38;98285.38;;;11.95;81.89
33422;BME280;19763;55.798;37.782;2022-09-20T00:06:06;98278.09;;;11.84;82.56
33422;BME280;19763;55.798;37.782;2022-09-20T00:08:33;98298.34;;;11.95;82.33
33422;BME280;19763;55.798;37.782;2022-09-20T00:11:03;98279.84;;;11.84;82.24
33422;BME280;19763;55.798;37.782;2022-09-20T00:13:31;98295.16;;;11.88;83.31
33422;BME280;19763;55.798;37.782;2022-09-20T00:15:58;98305.34;;;11.93;81.84
33422;BME280;19763;55.798;37.782;2022-09-20T00:18:24;98317.03;;;12.02;83.18
33422;BME280;19763;55.798;37.782;2022-09-20T00:20:51;98306.31;;;11.90;83.17
33422;BME280;19763;55.798;37.782;2022-09-20T00:23:18;98309.66;;;11.92;82.49
33422;BME280;19763;55.798;37.782;2022-09-20T00:25:44;98317.19;;;11.99;82.25
33422;BME280;19763;55.798;37.782;2022-09-20T00:28:11;98308.47;;;12.00;81.91
33422;BME280;19763;55.798;37.782;2022-09-20T00:30:37;98315.44;;;11.99;82.26
33422;BME280;19763;55.798;37.782;2022-09-20T00:33:03;98313.06;;;11.95;82.41
33422;BME280;19763;55.798;37.782;2022-09-20T00:35:29;98321.38;;;12.01;82.48
33422;BME280;19763;55.798;37.782;2022-09-20T00:37:55;98331.56;;;12.06;81.67
33422;BME280;19763;55.798;37.782;2022-09-20T00:40:22;98340.63;;;12.15;82.58
33422;BME280;19763;55.798;37.782;2022-09-20T00:42:49;98340.78;;;12.12;82.19
33422;BME280;19763;55.798;37.782;2022-09-20T00:45:25;98334.66;;;12.13;81.15
33422;BME280;19763;55.798;37.782;2022-09-20T00:50:43;98366.59;;;12.15;82.10
33422;BME280;19763;55.798;37.782;2022-09-20T00:53:27;98370.94;;;12.14;82.65
33422;BME280;19763;55.798;37.782;2022-09-20T00:56:07;98366.59;;;12.15;82.32
33422;BME280;19763;55.798;37.782;2022-09-20T00:58:38;98374.72;;;12.07;82.75
33422;BME280;19763;55.798;37.782;2022-09-20T01:01:05;98365.22;;;12.07;82.20
33422;BME280;19763;55.798;37.782;2022-09-20T01:03:33;98381.44;;;12.11;82.17
33422;BME280;19763;55.798;37.782;2022-09-20T01:06:06;98377.47;;;12.04;82.21
33422;BME280;19763;55.798;37.782;2022-09-20T01:08:34;98370.63;;;12.03;83.07
33422;BME280;19763;55.798;37.782;2022-09-20T01:11:01;98374.69;;;12.08;82.60
33422;BME280;19763;55.798;37.782;2022-09-20T01:13:27;98383.91;;;12.14;82.40
33422;BME280;19763;55.798;37.782;2022-09-20T01:15:53;98395.28;;;12.12;82.02
33422;BME280;19763;55.798;37.782;2022-09-20T01:18:23;98384.50;;;12.02;82.28
33422;BME280;19763;55.798;37.782;2022-09-20T01:20:49;98389.25;;;12.11;81.92
33422;BME280;19763;55.798;37.782;2022-09-20T01:28:44;98394.59;;;12.08;81.71
33422;BME280;19763;55.798;37.782;2022-09-20T01:33:54;98411.69;;;12.12;81.75
33422;BME280;19763;55.798;37.782;2022-09-20T01:36:23;98420.53;;;12.08;81.95
33422;BME280;19763;55.798;37.782;2022-09-20T01:41:47;98408.34;;;12.10;81.51
33422;BME280;19763;55.798;37.782;2022-09-20T01:57:01;98432.28;;;12.15;81.49
33422;BME280;19763;55.798;37.782;2022-09-20T02:05:11;98442.84;;;12.12;82.46
33422;BME280;19763;55.798;37.782;2022-09-20T02:10:46;98447.88;;;12.15;82.34
33422;BME280;19763;55.798;37.782;2022-09-20T02:18:46;98465.38;;;12.29;81.98
33422;BME280;19763;55.798;37.782;2022-09-20T02:24:21;98449.78;;;12.12;81.84
33422;BME280;19763;55.798;37.782;2022-09-20T02:27:26;98481.25;;;12.23;81.71
33422;BME280;19763;55.798;37.782;2022-09-20T02:35:39;98499.78;;;12.15;82.77
33422;BME280;19763;55.798;37.782;2022-09-20T02:52:43;98527.41;;;12.16;82.04
33422;BME280;19763;55.798;37.782;2022-09-20T02:55:29;98489.28;;;11.80;82.00
33422;BME280;19763;55.798;37.782;2022-09-20T03:00:43;98552.25;;;12.22;81.63
33422;BME280;19763;55.798;37.782;2022-09-20T03:06:06;98558.09;;;12.27;81.75
33422;BME280;19763;55.798;37.782;2022-09-20T03:14:18;98574.97;;;12.17;81.24
33422;BME280;19763;55.798;37.782;2022-09-20T03:25:29;98588.88;;;12.16;81.07
33422;BME280;19763;55.798;37.782;2022-09-20T03:33:58;98612.34;;;12.13;81.10
33422;BME280;19763;55.798;37.782;2022-09-20T03:42:42;98621.84;;;12.14;81.10
33422;BME280;19763;55.798;37.782;2022-09-20T04:04:29;98662.09;;;12.22;81.04
33422;BME280;19763;55.798;37.782;2022-09-20T04:21:10;98692.56;;;12.19;82.02
33422;BME280;19763;55.798;37.782;2022-09-20T04:26:47;98703.72;;;12.21;81.50
33422;BME280;19763;55.798;37.782;2022-09-20T04:29:41;98706.31;;;12.21;81.62
33422;BME280;19763;55.798;37.782;2022-09-20T04:32:32;98716.69;;;12.21;82.03
33422;BME280;19763;55.798;37.782;2022-09-20T04:37:54;98719.50;;;12.16;82.22
33422;BME280;19763;55.798;37.782;2022-09-20T04:43:40;98733.81;;;12.25;81.92
33422;BME280;19763;55.798;37.782;2022-09-20T04:51:33;98748.16;;;12.34;81.29
33422;BME280;19763;55.798;37.782;2022-09-20T05:03:42;98756.72;;;12.36;81.82
33422;BME280;19763;55.798;37.782;2022-09-20T05:14:22;98774.91;;;12.36;81.78
33422;BME280;19763;55.798;37.782;2022-09-20T05:27:56;98790.00;;;12.47;81.00
33422;BME280;19763;55.798;37.782;2022-09-20T05:30:51;98793.94;;;12.55;80.70
33422;BME280;19763;55.798;37.782;2022-09-20T05:33:43;98775.34;;;12.46;80.77
33422;BME280;19763;55.798;37.782;2022-09-20T05:36:28;98789.25;;;12.64;80.71
33422;BME280;19763;55.798;37.782;2022-09-20T05:39:06;98792.50;;;12.69;80.26
33422;BME280;19763;55.798;37.782;2022-09-20T05:47:19;98818.19;;;12.75;79.68
33422;BME280;19763;55.798;37.782;2022-09-20T06:00:59;98817.69;;;12.67;79.14
33422;BME280;19763;55.798;37.782;2022-09-20T06:03:42;98834.00;;;12.70;79.53
33422;BME280;19763;55.798;37.782;2022-09-20T06:06:28;98836.19;;;12.80;79.64
33422;BME280;19763;55.798;37.782;2022-09-20T06:09:19;98836.25;;;12.78;79.11
33422;BME280;19763;55.798;37.782;2022-09-20T06:14:58;98856.66;;;12.87;79.48
33422;BME280;19763;55.798;37.782;2022-09-20T06:17:58;98854.72;;;12.72;78.73
33422;BME280;19763;55.798;37.782;2022-09-20T06:22:58;98839.50;;;12.63;79.01
33422;BME280;19763;55.798;37.782;2022-09-20T06:25:30;98867.19;;;12.84;79.34
33422;BME280;19763;55.798;37.782;2022-09-20T06:28:17;98869.63;;;12.87;77.68
33422;BME280;19763;55.798;37.782;2022-09-20T06:30:46;98858.88;;;12.95;78.27
33422;BME280;19763;55.798;37.782;2022-09-20T06:33:14;98869.34;;;12.93;77.47
33422;BME280;19763;55.798;37.782;2022-09-20T06:41:21;98874.56;;;12.93;78.57
33422;BME280;19763;55.798;37.782;2022-09-20T06:44:02;98884.41;;;13.06;77.57
33422;BME280;19763;55.798;37.782;2022-09-20T06:46:34;98892.00;;;13.10;77.71
33422;BME280;19763;55.798;37.782;2022-09-20T06:49:01;98897.56;;;13.03;77.56
33422;BME280;19763;55.798;37.782;2022-09-20T06:51:33;98898.69;;;13.16;76.72
33422;BME280;19763;55.798;37.782;2022-09-20T06:53:59;98900.59;;;13.32;77.45
33422;BME280;19763;55.798;37.782;2022-09-20T06:56:27;98904.78;;;13.36;77.07
33422;BME280;19763;55.798;37.782;2022-09-20T06:58:54;98903.66;;;13.41;76.84
33422;BME280;19763;55.798;37.782;2022-09-20T07:01:20;98899.44;;;13.39;76.59
33422;BME280;19763;55.798;37.782;2022-09-20T07:03:46;98908.84;;;13.60;75.09
33422;BME280;19763;55.798;37.782;2022-09-20T07:06:12;98910.97;;;13.71;75.44
33422;BME280;19763;55.798;37.782;2022-09-20T07:08:41;98914.16;;;13.76;74.83
33422;BME280;19763;55.798;37.782;2022-09-20T07:11:15;98911.97;;;13.86;74.38
33422;BME280;19763;55.798;37.782;2022-09-20T07:13:42;98914.72;;;13.83;73.67
33422;BME280;19763;55.798;37.782;2022-09-20T07:16:11;98900.66;;;13.87;74.42
33422;BME280;19763;55.798;37.782;2022-09-20T07:18:38;98916.75;;;13.95;73.61
33422;BME280;19763;55.798;37.782;2022-09-20T07:21:04;98918.50;;;13.95;73.48
33422;BME280;19763;55.798;37.782;2022-09-20T07:23:30;98916.91;;;13.92;72.73
33422;BME280;19763;55.798;37.782;2022-09-20T07:25:56;98923.25;;;13.87;72.14
33422;BME280;19763;55.798;37.782;2022-09-20T07:28:30;98930.84;;;13.91;72.45
33422;BME280;19763;55.798;37.782;2022-09-20T07:30:57;98930.50;;;13.80;72.34
33422;BME280;19763;55.798;37.782;2022-09-20T07:33:22;98941.31;;;13.71;71.92
33422;BME280;19763;55.798;37.782;2022-09-20T07:35:51;98938.72;;;13.52;72.68
33422;BME280;19763;55.798;37.782;2022-09-20T07:38:20;98940.34;;;13.54;72.97
33422;BME280;19763;55.798;37.782;2022-09-20T07:40:56;98943.66;;;13.58;72.77
33422;BME280;19763;55.798;37.782;2022-09-20T07:43:23;98957.94;;;13.68;73.05
33422;BME280;19763;55.798;37.782;2022-09-20T07:45:50;98951.72;;;13.71;73.34
33422;BME280;19763;55.798;37.782;2022-09-20T07:48:19;98952.75;;;13.68;72.80
33422;BME280;19763;55.798;37.782;2022-09-20T07:50:52;98962.34;;;13.66;71.72
33422;BME280;19763;55.798;37.782;2022-09-20T07:53:18;98959.28;;;13.77;72.36
33422;BME280;19763;55.798;37.782;2022-09-20T07:55:58;98962.94;;;13.73;73.03
33422;BME280;19763;55.798;37.782;2022-09-20T07:58:24;98959.19;;;13.78;73.16
33422;BME280;19763;55.798;37.782;2022-09-20T08:00:55;98950.41;;;13.81;71.96
33422;BME280;19763;55.798;37.782;2022-09-20T08:03:21;98958.50;;;13.94;71.95
33422;BME280;19763;55.798;37.782;2022-09-20T08:05:47;98960.88;;;13.98;71.98
33422;BME280;19763;55.798;37.782;2022-09-20T08:08:16;98971.06;;;14.03;71.93
33422;BME280;19763;55.798;37.782;2022-09-20T08:10:45;98968.44;;;14.03;71.93
33422;BME280;19763;55.798;37.782;2022-09-20T08:13:14;98968.31;;;14.06;71.15
33422;BME280;19763;55.798;37.782;2022-09-20T08:15:40;98975.44;;;14.03;71.71
33422;BME280;19763;55.798;37.782;2022-09-20T08:18:07;98980.34;;;14.09;70.90
33422;BME280;19763;55.798;37.782;2022-09-20T08:20:37;98983.00;;;14.07;70.12
33422;BME280;19763;55.798;37.782;2022-09-20T08:23:04;98979.06;;;14.18;70.53
33422;BME280;19763;55.798;37.782;2022-09-20T08:25:30;98970.09;;;14.23;70.38
33422;BME280;19763;55.798;37.782;2022-09-20T08:27:56;98980.41;;;14.61;70.48
33422;BME280;19763;55.798;37.782;2022-09-20T08:30:21;98979.69;;;14.94;69.98
33422;BME280;19763;55.798;37.782;2022-09-20T08:32:48;98982.81;;;15.34;68.05
33422;BME280;19763;55.798;37.782;2022-09-20T08:35:14;98985.59;;;15.65;65.97
33422;BME280;19763;55.798;37.782;2022-09-20T08:37:40;98994.00;;;15.70;65.07
33422;BME280;19763;55.798;37.782;2022-09-20T08:40:16;98988.91;;;15.35;65.75
33422;BME280;19763;55.798;37.782;2022-09-20T08:42:43;98998.66;;;15.31;66.58
33422;BME280;19763;55.798;37.782;2022-09-20T08:45:18;98981.63;;;15.74;66.40
33422;BME280;19763;55.798;37.782;2022-09-20T08:47:50;98983.28;;;16.08;66.16
33422;BME280;19763;55.798;37.782;2022-09-20T08:50:17;98995.81;;;16.01;63.50
33422;BME280;19763;55.798;37.782;2022-09-20T08:52:49;99001.53;;;16.24;64.10
33422;BME280;19763;55.798;37.782;2022-09-20T08:55:19;99010.13;;;15.94;64.49
33422;BME280;19763;55.798;37.782;2022-09-20T08:57:51;99009.09;;;15.65;64.69
33422;BME280;19763;55.798;37.782;2022-09-20T09:00:32;98999.94;;;15.56;66.02
33422;BME280;19763;55.798;37.782;2022-09-20T09:03:04;99001.91;;;15.52;66.29
33422;BME280;19763;55.798;37.782;2022-09-20T09:05:35;99008.13;;;15.50;65.35
33422;BME280;19763;55.798;37.782;2022-09-20T09:08:08;98996.69;;;15.68;65.33
33422;BME280;19763;55.798;37.782;2022-09-20T09:10:40;99002.25;;;15.62;64.64
33422;BME280;19763;55.798;37.782;2022-09-20T09:13:07;99007.94;;;15.53;64.25
33422;BME280;19763;55.798;37.782;2022-09-20T09:15:38;99006.22;;;15.36;62.46
33422;BME280;19763;55.798;37.782;2022-09-20T09:18:10;99003.63;;;15.36;63.75
33422;BME280;19763;55.798;37.782;2022-09-20T09:20:40;99012.22;;;15.38;64.85
33422;BME280;19763;55.798;37.782;2022-09-20T09:23:08;99018.72;;;15.47;65.64
33422;BME280;19763;55.798;37.782;2022-09-20T09:25:43;99022.66;;;15.38;66.06
33422;BME280;19763;55.798;37.782;2022-09-20T09:30:38;99027.13;;;15.18;66.19
33422;BME280;19763;55.798;37.782;2022-09-20T09:33:29;99029.94;;;15.31;66.16
33422;BME280;19763;55.798;37.782;2022-09-20T09:36:07;99030.44;;;15.22;65.46
33422;BME280;19763;55.798;37.782;2022-09-20T09:38:44;99032.72;;;15.28;65.44
33422;BME280;19763;55.798;37.782;2022-09-20T09:41:30;99035.41;;;15.27;65.54
33422;BME280;19763;55.798;37.782;2022-09-20T09:44:27;99043.03;;;15.14;66.03
33422;BME280;19763;55.798;37.782;2022-09-20T09:46:54;99032.22;;;15.04;66.25
33422;BME280;19763;55.798;37.782;2022-09-20T09:49:27;99051.53;;;15.17;66.31
33422;BME280;19763;55.798;37.782;2022-09-20T09:54:21;99054.03;;;15.19;65.93
33422;BME280;19763;55.798;37.782;2022-09-20T10:00:11;99052.44;;;15.34;65.82
33422;BME280;19763;55.798;37.782;2022-09-20T10:03:12;99058.50;;;15.34;65.92
33422;BME280;19763;55.798;37.782;2022-09-20T10:20:19;99065.59;;;15.15;67.76
33422;BME280;19763;55.798;37.782;2022-09-20T10:25:39;99066.75;;;15.09;67.61
33422;BME280;19763;55.798;37.782;2022-09-20T10:36:54;99084.97;;;14.92;69.01
33422;BME280;19763;55.798;37.782;2022-09-20T10:39:24;99089.28;;;14.93;69.80
33422;BME280;19763;55.798;37.782;2022-09-20T10:47:41;99052.69;;;14.58;67.79
33422;BME280;19763;55.798;37.782;2022-09-20T10:55:34;99095.94;;;14.98;67.03
33422;BME280;19763;55.798;37.782;2022-09-20T10:58:11;99103.78;;;14.98;66.71
33422;BME280;19763;55.798;37.782;2022-09-20T11:06:30;99105.97;;;15.06;65.93
33422;BME280;19763;55.798;37.782;2022-09-20T11:09:04;99112.81;;;15.09;65.49
33422;BME280;19763;55.798;37.782;2022-09-20T11:11:41;99107.28;;;14.97;65.22
33422;BME280;19763;55.798;37.782;2022-09-20T11:14:31;99117.19;;;14.91;64.55
33422;BME280;19763;55.798;37.782;2022-09-20T11:17:09;99127.53;;;14.92;65.06
33422;BME280;19763;55.798;37.782;2022-09-20T11:20:05;99139.56;;;14.95;65.02
33422;BME280;19763;55.798;37.782;2022-09-20T11:22:48;99141.03;;;15.00;65.24
33422;BME280;19763;55.798;37.782;2022-09-20T11:25:36;99141.16;;;14.80;65.89
33422;BME280;19763;55.798;37.782;2022-09-20T11:28:13;99157.13;;;14.91;65.84
33422;BME280;19763;55.798;37.782;2022-09-20T11:33:47;99163.09;;;14.93;66.29
33422;BME280;19763;55.798;37.782;2022-09-20T11:36:37;99159.81;;;14.71;67.46
33422;BME280;19763;55.798;37.782;2022-09-20T11:39:14;99169.13;;;14.76;68.81
33422;BME280;19763;55.798;37.782;2022-09-20T11:41:41;99165.84;;;14.73;68.82
33422;BME280;19763;55.798;37.782;2022-09-20T11:44:11;99163.91;;;14.76;68.92
33422;BME280;19763;55.798;37.782;2022-09-20T11:46:41;99177.09;;;14.73;69.25
33422;BME280;19763;55.798;37.782;2022-09-20T11:49:22;99168.84;;;14.63;70.24
33422;BME280;19763;55.798;37.782;2022-09-20T11:57:29;99190.75;;;14.59;70.56
33422;BME280;19763;55.798;37.782;2022-09-20T11:59:56;99183.91;;;14.57;69.82
33422;BME280;19763;55.798;37.782;2022-09-20T12:02:46;99175.38;;;14.53;69.36
33422;BME280;19763;55.798;37.782;2022-09-20T12:05:30;99173.72;;;14.71;68.53
33422;BME280;19763;55.798;37.782;2022-09-20T12:07:59;99188.38;;;14.74;68.13
33422;BME280;19763;55.798;37.782;2022-09-20T12:10:30;99188.72;;;14.85;68.22
33422;BME280;19763;55.798;37.782;2022-09-20T12:13:00;99190.19;;;14.91;68.78
33422;BME280;19763;55.798;37.782;2022-09-20T12:21:22;99201.47;;;14.91;67.79
33422;BME280;19763;55.798;37.782;2022-09-20T12:28:50;99212.94;;;14.87;66.90
33422;BME280;19763;55.798;37.782;2022-09-20T12:36:38;99214.72;;;14.87;67.92
33422;BME280;19763;55.798;37.782;2022-09-20T12:58:03;99228.09;;;14.79;67.35
33422;BME280;19763;55.798;37.782;2022-09-20T13:00:41;99234.72;;;14.86;67.65
33422;BME280;19763;55.798;37.782;2022-09-20T13:08:48;99237.97;;;14.91;68.05
33422;BME280;19763;55.798;37.782;2022-09-20T13:11:16;99243.31;;;14.88;68.27
33422;BME280;19763;55.798;37.782;2022-09-20T13:19:05;99251.69;;;14.76;67.70
33422;BME280;19763;55.798;37.782;2022-09-20T13:21:39;99249.44;;;14.87;69.30
33422;BME280;19763;55.798;37.782;2022-09-20T13:24:05;99245.16;;;14.86;67.84
33422;BME280;19763;55.798;37.782;2022-09-20T13:26:40;99251.00;;;14.91;67.16
33422;BME280;19763;55.798;37.782;2022-09-20T13:29:34;99258.91;;;14.90;67.46
33422;BME280;19763;55.798;37.782;2022-09-20T13:32:22;99239.38;;;14.79;67.91
33422;BME280;19763;55.798;37.782;2022-09-20T13:35:17;99270.09;;;14.92;68.01
33422;BME280;19763;55.798;37.782;2022-09-20T13:40:39;99263.19;;;14.72;67.78
33422;BME280;19763;55.798;37.782;2022-09-20T13:45:52;99256.81;;;14.58;68.40
33422;BME280;19763;55.798;37.782;2022-09-20T13:48:18;99263.19;;;14.72;68.82
33422;BME280;19763;55.798;37.782;2022-09-20T13:50:43;99253.97;;;14.44;68.57
33422;BME280;19763;55.798;37.782;2022-09-20T13:53:14;99253.03;;;14.45;68.71
33422;BME280;19763;55.798;37.782;2022-09-20T13:55:41;99271.03;;;14.51;68.36
33422;BME280;19763;55.798;37.782;2022-09-20T13:58:20;99262.34;;;14.50;69.34
33422;BME280;19763;55.798;37.782;2022-09-20T14:03:20;99271.66;;;14.56;68.05
33422;BME280;19763;55.798;37.782;2022-09-20T14:05:49;99271.47;;;14.61;68.33
33422;BME280;19763;55.798;37.782;2022-09-20T14:08:27;99274.81;;;14.64;68.48
33422;BME280;19763;55.798;37.782;2022-09-20T14:11:06;99266.91;;;14.66;68.47
33422;BME280;19763;55.798;37.782;2022-09-20T14:13:37;99276.88;;;14.56;68.08
33422;BME280;19763;55.798;37.782;2022-09-20T14:16:05;99273.28;;;14.59;68.68
33422;BME280;19763;55.798;37.782;2022-09-20T14:18:32;99275.44;;;14.70;68.93
33422;BME280;19763;55.798;37.782;2022-09-20T14:20:59;99265.72;;;14.73;69.03
33422;BME280;19763;55.798;37.782;2022-09-20T14:23:27;99276.78;;;14.78;68.44
33422;BME280;19763;55.798;37.782;2022-09-20T14:28:44;99271.94;;;14.90;68.57
33422;BME280;19763;55.798;37.782;2022-09-20T14:31:22;99287.66;;;14.88;68.32
33422;BME280;19763;55.798;37.782;2022-09-20T14:33:55;99280.22;;;14.79;68.27
33422;BME280;19763;55.798;37.782;2022-09-20T14:36:27;99288.84;;;14.81;68.11
33422;BME280;19763;55.798;37.782;2022-09-20T14:39:02;99302.03;;;14.78;68.69
33422;BME280;19763;55.798;37.782;2022-09-20T14:41:34;99300.09;;;14.62;68.57
33422;BME280;19763;55.798;37.782;2022-09-20T14:44:00;99295.59;;;14.66;68.92
33422;BME280;19763;55.798;37.782;2022-09-20T14:46:33;99294.81;;;14.64;68.24
33422;BME280;19763;55.798;37.782;2022-09-20T14:51:51;99302.72;;;14.62;67.90
33422;BME280;19763;55.798;37.782;2022-09-20T14:54:28;99302.94;;;14.56;68.94
33422;BME280;19763;55.798;37.782;2022-09-20T14:56:57;99314.28;;;14.55;69.31
33422;BME280;19763;55.798;37.782;2022-09-20T14:59:27;99314.34;;;14.54;69.85
33422;BME280;19763;55.798;37.782;2022-09-20T15:04:35;99322.28;;;14.50;68.93
33422;BME280;19763;55.798;37.782;2022-09-20T15:07:08;99317.88;;;14.53;69.56
33422;BME280;19763;55.798;37.782;2022-09-20T15:09:36;99328.28;;;14.53;68.91
33422;BME280;19763;55.798;37.782;2022-09-20T15:12:05;99325.53;;;14.56;69.26
33422;BME280;19763;55.798;37.782;2022-09-20T15:14:31;99328.50;;;14.48;69.31
33422;BME280;19763;55.798;37.782;2022-09-20T15:16:57;99324.19;;;14.47;69.61
33422;BME280;19763;55.798;37.782;2022-09-20T15:19:25;99330.97;;;14.51;69.63
33422;BME280;19763;55.798;37.782;2022-09-20T15:21:50;99330.09;;;14.50;69.04
33422;BME280;19763;55.798;37.782;2022-09-20T15:24:16;99342.94;;;14.55;69.77
33422;BME280;19763;55.798;37.782;2022-09-20T15:26:44;99341.47;;;14.49;69.51
33422;BME280;19763;55.798;37.782;2022-09-20T15:29:13;99339.75;;;14.48;70.00
33422;BME280;19763;55.798;37.782;2022-09-20T15:31:40;99346.75;;;14.48;69.43
33422;BME280;19763;55.798;37.782;2022-09-20T15:34:05;99342.66;;;14.41;69.71
33422;BME280;19763;55.798;37.782;2022-09-20T15:36:31;99343.41;;;14.44;69.85
33422;BME280;19763;55.798;37.782;2022-09-20T15:38:57;99354.50;;;14.49;69.88
33422;BME280;19763;55.798;37.782;2022-09-20T15:41:23;99353.47;;;14.52;70.37
33422;BME280;19763;55.798;37.782;2022-09-20T15:43:48;99358.75;;;14.50;70.59
33422;BME280;19763;55.798;37.782;2022-09-20T15:46:19;99356.78;;;14.37;70.60
33422;BME280;19763;55.798;37.782;2022-09-20T15:48:45;99358.31;;;14.41;70.78
33422;BME280;19763;55.798;37.782;2022-09-20T15:51:11;99354.16;;;14.37;70.31
33422;BME280;19763;55.798;37.782;2022-09-20T15:53:41;99365.28;;;14.40;70.18
33422;BME280;19763;55.798;37.782;2022-09-20T15:56:15;99361.91;;;14.38;70.28
33422;BME280;19763;55.798;37.782;2022-09-20T15:58:48;99356.31;;;14.27;70.06
33422;BME280;19763;55.798;37.782;2022-09-20T16:01:15;99368.16;;;14.34;70.04
33422;BME280;19763;55.798;37.782;2022-09-20T16:03:42;99368.94;;;14.36;69.89
33422;BME280;19763;55.798;37.782;2022-09-20T16:06:09;99377.84;;;14.30;70.21
33422;BME280;19763;55.798;37.782;2022-09-20T16:08:37;99377.22;;;14.25;70.74
33422;BME280;19763;55.798;37.782;2022-09-20T16:11:05;99376.47;;;14.22;70.92
33422;BME280;19763;55.798;37.782;2022-09-20T16:13:31;99383.38;;;14.23;71.08
33422;BME280;19763;55.798;37.782;2022-09-20T16:15:59;99372.44;;;14.14;70.91
33422;BME280;19763;55.798;37.782;2022-09-20T16:18:26;99377.97;;;14.07;71.58
33422;BME280;19763;55.798;37.782;2022-09-20T16:21:12;99384.78;;;14.09;71.99
33422;BME280;19763;55.798;37.782;2022-09-20T16:23:39;99386.81;;;14.03;71.50
33422;BME280;19763;55.798;37.782;2022-09-20T16:26:14;99378.94;;;14.04;71.93
33422;BME280;19763;55.798;37.782;2022-09-20T16:28:41;99394.25;;;14.12;71.70
33422;BME280;19763;55.798;37.782;2022-09-20T16:34:22;99406.84;;;14.01;72.39
33422;BME280;19763;55.798;37.782;2022-09-20T16:36:53;99394.84;;;13.96;72.29
33422;BME280;19763;55.798;37.782;2022-09-20T16:39:20;99402.66;;;13.96;71.99
33422;BME280;19763;55.798;37.782;2022-09-20T16:41:54;99400.13;;;13.95;71.80
33422;BME280;19763;55.798;37.782;2022-09-20T16:44:21;99400.94;;;13.97;72.51
33422;BME280;19763;55.798;37.782;2022-09-20T16:46:47;99402.72;;;13.95;72.57
33422;BME280;19763;55.798;37.782;2022-09-20T16:49:13;99399.41;;;13.91;72.68
33422;BME280;19763;55.798;37.782;2022-09-20T16:51:41;99407.41;;;13.87;72.81
33422;BME280;19763;55.798;37.782;2022-09-20T16:54:12;99410.72;;;13.90;72.82
33422;BME280;19763;55.798;37.782;2022-09-20T16:56:43;99400.44;;;13.87;72.58
33422;BME280;19763;55.798;37.782;2022-09-20T16:59:10;99411.75;;;13.86;73.27
33422;BME280;19763;55.798;37.782;2022-09-20T17:01:38;99411.75;;;13.86;73.47
33422;BME280;19763;55.798;37.782;2022-09-20T17:04:05;99416.31;;;13.81;73.78
33422;BME280;19763;55.798;37.782;2022-09-20T17:06:33;99400.78;;;13.78;73.94
33422;BME280;19763;55.798;37.782;2022-09-20T17:08:59;99410.38;;;13.77;73.15
33422;BME280;19763;55.798;37.782;2022-09-20T17:11:28;99411.31;;;13.75;73.77
33422;BME280;19763;55.798;37.782;2022-09-20T17:13:55;99422.66;;;13.74;74.07
33422;BME280;19763;55.798;37.782;2022-09-20T17:16:23;99412.53;;;13.66;74.56
33422;BME280;19763;55.798;37.782;2022-09-20T17:18:53;99426.34;;;13.68;74.72
33422;BME280;19763;55.798;37.782;2022-09-20T17:21:20;99424.78;;;13.64;74.33
33422;BME280;19763;55.798;37.782;2022-09-20T17:23:51;99417.97;;;13.60;75.13
33422;BME280;19763;55.798;37.782;2022-09-20T17:26:24;99418.94;;;13.57;75.34
33422;BME280;19763;55.798;37.782;2022-09-20T17:28:53;99407.19;;;13.47;75.61
33422;BME280;19763;55.798;37.782;2022-09-20T17:31:22;99418.56;;;13.44;75.78
33422;BME280;19763;55.798;37.782;2022-09-20T17:33:50;99429.75;;;13.46;75.82
33422;BME280;19763;55.798;37.782;2022-09-20T17:36:18;99419.03;;;13.30;75.53
33422;BME280;19763;55.798;37.782;2022-09-20T17:38:52;99434.41;;;13.38;76.66
33422;BME280;19763;55.798;37.782;2022-09-20T17:41:20;99443.94;;;13.38;76.89
33422;BME280;19763;55.798;37.782;2022-09-20T17:43:46;99451.06;;;13.33;76.27
33422;BME280;19763;55.798;37.782;2022-09-20T17:46:21;99440.97;;;13.23;76.46
33422;BME280;19763;55.798;37.782;2022-09-20T17:48:51;99450.41;;;13.26;75.98
33422;BME280;19763;55.798;37.782;2022-09-20T17:51:21;99453.09;;;13.24;76.62
33422;BME280;19763;55.798;37.782;2022-09-20T17:53:48;99454.03;;;13.22;76.50
33422;BME280;19763;55.798;37.782;2022-09-20T17:56:14;99461.06;;;13.20;77.08
33422;BME280;19763;55.798;37.782;2022-09-20T17:58:41;99444.75;;;13.15;77.22
33422;BME280;19763;55.798;37.782;2022-09-20T18:01:12;99447.47;;;13.11;77.52
33422;BME280;19763;55.798;37.782;2022-09-20T18:03:40;99456.00;;;13.15;77.60
33422;BME280;19763;55.798;37.782;2022-09-20T18:06:22;99460.31;;;13.16;77.26
33422;BME280;19763;55.798;37.782;2022-09-20T18:08:56;99451.81;;;13.11;77.98
33422;BME280;19763;55.798;37.782;2022-09-20T18:11:27;99444.34;;;13.02;78.57
33422;BME280;19763;55.798;37.782;2022-09-20T18:13:53;99451.19;;;13.04;77.66
33422;BME280;19763;55.798;37.782;2022-09-20T18:16:19;99451.97;;;13.06;77.91
33422;BME280;19763;55.798;37.782;2022-09-20T18:18:45;99450.56;;;12.98;77.87
33422;BME280;19763;55.798;37.782;2022-09-20T18:21:17;99446.53;;;12.89;78.38
33422;BME280;19763;55.798;37.782;2022-09-20T18:23:43;99453.38;;;12.91;78.85
33422;BME280;19763;55.798;37.782;2022-09-20T18:26:12;99455.06;;;12.92;78.66
33422;BME280;19763;55.798;37.782;2022-09-20T18:29:01;99460.38;;;12.89;78.28
33422;BME280;19763;55.798;37.782;2022-09-20T18:31:33;99440.03;;;12.77;79.77
33422;BME280;19763;55.798;37.782;2022-09-20T18:34:06;99447.75;;;12.78;78.14
33422;BME280;19763;55.798;37.782;2022-09-20T18:36:35;99463.34;;;12.78;79.93
33422;BME280;19763;55.798;37.782;2022-09-20T18:39:03;99467.69;;;12.78;78.85